Time;durP1;ratioP1;P1;durP2;ratioP2;P2;SDS_P1;SDS_P2;PMS_P1;PMS_P2;Temp;Humidity;BMP_temperature;BMP_pressure;BME280_temperature;BME280_humidity;BME280_pressure;Samples;Min_cycle;Max_cycle;Signal;HPM_P1;HPM_P2
2022/10/27 04:01:04;;;;;;;1999.90;999.90;;;8.20;99.90;;;;;;5726342;23;20047;-75
2022/10/27 04:03:30;;;;;;;1999.90;999.90;;;8.10;99.90;;;;;;4994430;28;20050;-77
2022/10/27 04:05:56;;;;;;;1999.90;999.90;;;8.10;99.90;;;;;;4992962;28;20038;-75
2022/10/27 04:08:22;;;;;;;1999.90;999.90;;;8.10;99.90;;;;;;4994489;28;20424;-75
2022/10/27 04:10:47;;;;;;;1999.90;999.90;;;8.10;99.90;;;;;;4992192;28;20030;-75
2022/10/27 04:13:13;;;;;;;1999.90;999.90;;;8.10;99.90;;;;;;4995398;28;20034;-75
2022/10/27 04:15:38;;;;;;;1999.90;999.90;;;8.10;99.90;;;;;;4998240;28;20479;-75
2022/10/27 04:18:04;;;;;;;1999.90;999.90;;;8.10;99.90;;;;;;4997428;28;20130;-75
2022/10/27 04:20:30;;;;;;;1999.90;999.90;;;8.10;99.90;;;;;;4997042;28;20043;-75
2022/10/27 04:22:56;;;;;;;1999.90;999.90;;;8.00;99.90;;;;;;4997593;28;20027;-75
2022/10/27 04:25:23;;;;;;;1999.90;999.90;;;8.10;99.90;;;;;;4996895;28;20035;-75
2022/10/27 04:27:48;;;;;;;1999.90;999.90;;;8.20;99.90;;;;;;4997558;28;20038;-75
2022/10/27 04:30:14;;;;;;;1999.90;999.90;;;8.20;99.90;;;;;;4997502;28;20484;-76
2022/10/27 04:32:39;;;;;;;1999.90;999.90;;;8.30;99.90;;;;;;4997340;28;20062;-76
2022/10/27 04:35:06;;;;;;;1999.90;999.90;;;8.20;99.90;;;;;;4995486;28;20039;-76
2022/10/27 04:37:33;;;;;;;1999.90;999.90;;;8.20;99.90;;;;;;4997465;28;20038;-76
2022/10/27 04:39:58;;;;;;;1999.90;999.90;;;8.10;99.90;;;;;;4996559;28;20417;-76
2022/10/27 04:42:24;;;;;;;1999.90;999.90;;;8.10;99.90;;;;;;5002665;28;20035;-76
2022/10/27 04:44:49;;;;;;;1999.90;999.90;;;8.00;99.90;;;;;;5000351;28;20038;-76
2022/10/27 04:47:15;;;;;;;1999.90;999.90;;;8.00;99.90;;;;;;4997192;28;20544;-76
2022/10/27 04:49:40;;;;;;;1999.90;999.90;;;8.00;99.90;;;;;;4997187;28;20042;-76
2022/10/27 04:52:06;;;;;;;1999.90;999.90;;;8.00;99.90;;;;;;4997083;28;20499;-76
2022/10/27 04:54:31;;;;;;;1999.90;999.90;;;8.00;99.90;;;;;;4996729;28;20039;-76
2022/10/27 04:56:57;;;;;;;1999.90;999.90;;;8.00;99.90;;;;;;4996939;28;20401;-76
2022/10/27 04:59:22;;;;;;;1999.90;999.90;;;8.00;99.90;;;;;;4997023;28;20447;-76
2022/10/27 05:01:48;;;;;;;1999.90;999.90;;;7.90;99.90;;;;;;4994939;28;20511;-76
2022/10/27 05:04:14;;;;;;;1999.90;999.90;;;8.00;99.90;;;;;;4997405;28;20436;-76
2022/10/27 05:06:39;;;;;;;1999.90;999.90;;;7.90;99.90;;;;;;4995977;28;20039;-76
2022/10/27 05:09:05;;;;;;;1999.90;999.90;;;7.80;99.90;;;;;;5001356;28;20085;-76
2022/10/27 05:11:30;;;;;;;1999.90;999.90;;;7.80;99.90;;;;;;4996287;28;20158;-76
2022/10/27 05:13:56;;;;;;;1999.90;999.90;;;7.80;99.90;;;;;;4996980;28;20074;-76
2022/10/27 05:16:21;;;;;;;1999.90;999.90;;;7.80;99.90;;;;;;4996549;28;20038;-76
2022/10/27 05:18:47;;;;;;;1999.90;999.90;;;7.80;99.90;;;;;;4996356;28;20034;-76
2022/10/27 05:21:13;;;;;;;1999.90;999.90;;;7.70;99.90;;;;;;4997126;28;20503;-77
2022/10/27 05:23:39;;;;;;;1999.90;999.90;;;7.80;99.90;;;;;;4996969;28;20507;-76
2022/10/27 05:26:04;;;;;;;1999.90;999.90;;;7.80;99.90;;;;;;4986807;28;20042;-75
2022/10/27 05:28:30;;;;;;;1999.90;999.90;;;7.80;99.90;;;;;;4988697;28;20070;-77
2022/10/27 05:30:57;;;;;;;1999.90;999.90;;;7.80;99.90;;;;;;4990295;28;20046;-76
2022/10/27 05:33:23;;;;;;;1999.90;999.90;;;7.80;99.90;;;;;;4991338;28;20031;-77
2022/10/27 05:35:49;;;;;;;1999.90;999.90;;;7.90;99.90;;;;;;4995295;28;20038;-77
2022/10/27 05:38:15;;;;;;;1999.90;999.90;;;7.70;99.90;;;;;;4996784;28;20030;-77
2022/10/27 05:40:41;;;;;;;1999.90;999.90;;;7.80;99.90;;;;;;4996148;28;20034;-77
2022/10/27 05:43:06;;;;;;;1999.90;999.90;;;7.70;99.90;;;;;;4999390;28;20026;-78
2022/10/27 05:45:33;;;;;;;1999.90;999.90;;;7.70;99.90;;;;;;4995742;28;20684;-77
2022/10/27 05:48:04;;;;;;;1999.90;999.90;;;7.70;99.90;;;;;;4996351;28;20042;-77
2022/10/27 05:50:30;;;;;;;1999.90;999.90;;;7.70;99.90;;;;;;4997099;28;20061;-76
2022/10/27 05:52:55;;;;;;;1999.90;999.90;;;7.70;99.90;;;;;;4996619;28;20033;-75
2022/10/27 05:55:22;;;;;;;1999.90;999.90;;;7.70;99.90;;;;;;4992470;28;20088;-76
2022/10/27 05:58:02;;;;;;;1999.90;999.90;;;7.70;99.90;;;;;;4987605;28;20134;-75
2022/10/27 06:00:30;;;;;;;1999.90;999.90;;;7.70;99.90;;;;;;4989971;28;20031;-75
2022/10/27 06:02:57;;;;;;;1999.90;999.90;;;7.80;99.90;;;;;;4996343;28;20023;-76
2022/10/27 06:05:23;;;;;;;1999.90;999.90;;;7.80;99.90;;;;;;4989933;28;20043;-75
2022/10/27 06:07:49;;;;;;;1999.90;999.90;;;7.80;99.90;;;;;;4982371;28;20027;-76
2022/10/27 06:10:14;;;;;;;1999.90;999.90;;;7.90;99.90;;;;;;4985294;28;20030;-75
2022/10/27 06:12:40;;;;;;;1999.90;999.90;;;8.00;99.90;;;;;;4984433;28;20047;-78
2022/10/27 06:15:06;;;;;;;1999.90;999.90;;;8.20;99.90;;;;;;4986157;28;20086;-75
2022/10/27 06:17:31;;;;;;;1999.90;999.90;;;8.40;99.90;;;;;;4978588;28;20031;-75
2022/10/27 06:19:57;;;;;;;1999.90;999.90;;;8.40;99.90;;;;;;4976138;28;20370;-75
2022/10/27 06:22:23;;;;;;;1999.90;999.90;;;8.50;99.90;;;;;;4976240;28;20097;-76
2022/10/27 06:24:48;;;;;;;1999.90;999.90;;;8.50;99.90;;;;;;4976359;28;20039;-76
2022/10/27 06:27:14;;;;;;;1999.90;999.90;;;8.50;99.90;;;;;;4976186;28;20038;-78
2022/10/27 06:29:39;;;;;;;1999.90;999.90;;;8.50;99.90;;;;;;4976574;28;20043;-79
2022/10/27 06:32:05;;;;;;;1999.90;999.90;;;8.50;99.90;;;;;;4975099;28;20039;-77
2022/10/27 06:34:30;;;;;;;1999.90;999.90;;;8.40;99.90;;;;;;4976243;28;20035;-77
2022/10/27 06:36:56;;;;;;;1999.90;999.90;;;8.40;99.90;;;;;;4974854;28;20031;-77
2022/10/27 06:39:21;;;;;;;1999.90;999.90;;;8.40;99.90;;;;;;4976657;28;20046;-78
2022/10/27 06:41:47;;;;;;;1999.90;999.90;;;8.30;99.90;;;;;;4976120;28;20118;-77
2022/10/27 06:44:12;;;;;;;1999.90;999.90;;;8.20;99.90;;;;;;4976155;28;20042;-77
2022/10/27 06:46:38;;;;;;;1999.90;999.90;;;8.20;99.90;;;;;;4974446;28;20027;-77
2022/10/27 06:49:05;;;;;;;1999.90;999.90;;;8.30;99.90;;;;;;4976125;28;20090;-78
2022/10/27 06:51:31;;;;;;;1999.90;999.90;;;8.30;99.90;;;;;;4975689;28;20106;-77
2022/10/27 06:53:56;;;;;;;1999.90;999.90;;;8.40;99.90;;;;;;4975893;28;20046;-78
2022/10/27 06:56:22;;;;;;;1999.90;999.90;;;8.50;99.90;;;;;;4975876;28;20086;-78
2022/10/27 06:58:48;;;;;;;1999.90;999.90;;;8.60;99.90;;;;;;4976545;28;20047;-77
2022/10/27 07:01:13;;;;;;;1999.90;999.90;;;8.60;99.90;;;;;;4975158;28;20051;-75
2022/10/27 07:03:39;;;;;;;1999.90;999.90;;;8.70;99.90;;;;;;4975500;28;20035;-76
2022/10/27 07:06:05;;;;;;;1999.90;999.90;;;8.80;99.90;;;;;;4975323;28;20405;-77
2022/10/27 07:08:31;;;;;;;1999.90;999.90;;;8.80;99.90;;;;;;4975415;28;20744;-76
2022/10/27 07:10:56;;;;;;;1999.90;999.90;;;8.90;99.90;;;;;;4975405;28;20046;-77
2022/10/27 07:13:22;;;;;;;1999.90;999.90;;;9.10;99.90;;;;;;4975477;28;20103;-77
2022/10/27 07:15:47;;;;;;;1999.90;999.90;;;9.20;99.90;;;;;;4975297;28;20035;-77
2022/10/27 07:18:13;;;;;;;1999.90;999.90;;;9.20;99.90;;;;;;4975551;28;20102;-77
2022/10/27 07:20:39;;;;;;;1999.90;999.90;;;9.20;99.90;;;;;;4975034;28;20083;-77
2022/10/27 07:23:08;;;;;;;1999.90;999.90;;;9.20;99.90;;;;;;4973970;28;20067;-77
2022/10/27 07:25:35;;;;;;;1999.90;999.90;;;9.20;99.90;;;;;;4975157;28;20027;-77
2022/10/27 07:28:02;;;;;;;1999.90;999.90;;;9.20;99.90;;;;;;4975095;28;20031;-77
2022/10/27 07:30:34;;;;;;;1999.90;999.90;;;9.40;99.90;;;;;;4990231;28;20035;-77
2022/10/27 07:33:00;;;;;;;1999.90;999.90;;;9.30;99.90;;;;;;4985404;28;20069;-77
2022/10/27 07:35:26;;;;;;;1999.90;999.90;;;9.40;99.90;;;;;;4975004;28;20035;-77
2022/10/27 07:37:52;;;;;;;1999.90;999.90;;;9.50;99.90;;;;;;4975530;28;20497;-77
2022/10/27 07:40:20;;;;;;;1999.90;999.90;;;9.50;99.90;;;;;;4975172;28;20039;-77
2022/10/27 07:42:47;;;;;;;1999.90;999.90;;;9.60;99.90;;;;;;4975604;28;20040;-84
2022/10/27 07:45:15;;;;;;;1999.90;999.90;;;9.60;99.90;;;;;;4975358;28;20110;-77
2022/10/27 07:47:48;;;;;;;1999.90;999.90;;;9.70;99.90;;;;;;4975609;28;20042;-76
2022/10/27 07:50:14;;;;;;;1999.90;999.90;;;9.70;99.90;;;;;;4977168;28;20038;-76
2022/10/27 07:52:49;;;;;;;1999.90;999.90;;;9.80;99.90;;;;;;4978534;28;20037;-77
2022/10/27 07:55:15;;;;;;;1999.90;999.90;;;9.90;99.90;;;;;;4978238;28;20772;-77
2022/10/27 07:57:42;;;;;;;1999.90;999.90;;;10.00;99.90;;;;;;4978477;28;20057;-77
2022/10/27 08:00:11;;;;;;;1999.90;999.90;;;10.10;99.90;;;;;;4978128;28;20043;-77
2022/10/27 08:02:36;;;;;;;1999.90;999.90;;;10.20;99.90;;;;;;4978345;28;20050;-77
2022/10/27 08:05:02;;;;;;;1999.90;999.90;;;10.30;99.90;;;;;;4978215;28;20035;-77
2022/10/27 08:07:28;;;;;;;1999.90;999.90;;;10.40;99.90;;;;;;4978078;28;20138;-77
2022/10/27 08:09:54;;;;;;;1999.90;999.90;;;10.50;99.90;;;;;;4978423;28;20122;-78
2022/10/27 08:12:19;;;;;;;1999.90;999.90;;;10.50;99.90;;;;;;4977515;28;20078;-77
2022/10/27 08:14:45;;;;;;;1999.90;999.90;;;10.60;99.90;;;;;;4977658;28;20507;-77
2022/10/27 08:17:12;;;;;;;1999.90;999.90;;;10.60;99.90;;;;;;4978347;28;20520;-77
2022/10/27 08:19:38;;;;;;;1999.90;999.90;;;10.70;99.90;;;;;;4976480;28;20045;-77
2022/10/27 08:22:03;;;;;;;1999.90;999.90;;;10.70;99.90;;;;;;4977712;28;20516;-77
2022/10/27 08:24:29;;;;;;;1999.90;999.90;;;10.80;99.90;;;;;;4978060;28;20054;-77
2022/10/27 08:26:54;;;;;;;1999.90;999.90;;;10.90;99.90;;;;;;4977712;28;20495;-77
2022/10/27 08:29:20;;;;;;;1999.90;999.90;;;11.00;99.90;;;;;;4977820;28;20123;-77
2022/10/27 08:31:45;;;;;;;1999.90;999.90;;;11.10;99.90;;;;;;4977565;28;20119;-77
2022/10/27 08:34:11;;;;;;;1999.90;999.90;;;11.20;99.90;;;;;;4977701;28;20039;-77
2022/10/27 08:36:39;;;;;;;1999.90;999.90;;;11.20;99.90;;;;;;4977812;28;20114;-77
2022/10/27 08:39:07;;;;;;;1999.90;999.90;;;11.30;99.90;;;;;;4977368;28;20035;-77
2022/10/27 08:41:56;;;;;;;1999.90;999.90;;;11.40;99.90;;;;;;4977153;28;20534;-77
2022/10/27 08:44:44;;;;;;;1999.90;999.90;;;11.50;99.90;;;;;;4977790;28;20035;-77
2022/10/27 08:47:19;;;;;;;1999.90;999.90;;;11.60;99.90;;;;;;4977769;28;20030;-77
2022/10/27 08:49:53;;;;;;;1999.90;999.90;;;11.70;99.90;;;;;;4978006;28;20039;-77
2022/10/27 08:52:21;;;;;;;1999.90;999.90;;;11.90;99.90;;;;;;4977412;28;20039;-77
2022/10/27 08:55:13;;;;;;;1999.90;999.90;;;12.00;99.90;;;;;;4977580;28;20027;-78
2022/10/27 08:57:46;;;;;;;1999.90;999.90;;;12.10;99.90;;;;;;4969244;28;20054;-78
2022/10/27 09:00:13;;;;;;;1999.90;999.90;;;12.20;99.90;;;;;;4980885;28;20079;-78
2022/10/27 09:02:52;;;;;;;1999.90;999.90;;;12.20;99.90;;;;;;4997135;28;20042;-78
2022/10/27 09:05:53;;;;;;;1999.90;999.90;;;12.20;99.90;;;;;;4998156;28;20050;-78
2022/10/27 09:08:28;;;;;;;1999.90;999.90;;;12.40;99.90;;;;;;4997546;28;20046;-78
2022/10/27 09:10:54;;;;;;;1999.90;999.90;;;12.50;99.90;;;;;;4997428;28;20038;-78
2022/10/27 09:13:48;;;;;;;1999.90;999.90;;;12.60;99.90;;;;;;4996835;28;20396;-78
2022/10/27 09:16:32;;;;;;;1999.90;999.90;;;12.70;99.90;;;;;;5007308;28;20031;-77
2022/10/27 09:19:02;;;;;;;1999.90;999.90;;;12.80;99.90;;;;;;5007055;28;20098;-78
2022/10/27 09:21:31;;;;;;;1999.90;999.90;;;13.00;99.90;;;;;;5006677;28;20035;-77
2022/10/27 09:24:02;;;;;;;1999.90;999.90;;;13.00;99.90;;;;;;5005130;28;20041;-77
2022/10/27 09:26:31;;;;;;;1999.90;999.90;;;13.10;99.90;;;;;;5008503;28;20042;-77
2022/10/27 09:29:00;;;;;;;1999.90;999.90;;;13.20;99.90;;;;;;5018607;28;20872;-77
2022/10/27 09:31:54;;;;;;;1999.90;999.90;;;13.30;99.90;;;;;;5025645;28;20118;-77
2022/10/27 09:35:08;;;;;;;1999.90;999.90;;;13.40;99.90;;;;;;5023551;28;20054;-77
2022/10/27 09:37:39;;;;;;;1999.90;999.90;;;13.60;99.90;;;;;;5030220;28;20026;-79
2022/10/27 09:40:17;;;;;;;1999.90;999.90;;;13.70;99.90;;;;;;5017294;28;20098;-78
2022/10/27 09:42:56;;;;;;;1999.90;999.90;;;13.80;99.90;;;;;;5035524;28;20041;-80
2022/10/27 09:45:25;;;;;;;1999.90;999.90;;;13.90;99.90;;;;;;5034313;28;20042;-80
2022/10/27 09:47:58;;;;;;;1999.90;999.90;;;14.00;99.90;;;;;;5018178;28;20034;-78
2022/10/27 09:50:39;;;;;;;1999.90;999.90;;;14.10;99.90;;;;;;5025556;28;20475;-79
2022/10/27 09:53:25;;;;;;;1999.90;999.90;;;14.20;99.90;;;;;;5017260;28;20027;-80
2022/10/27 09:55:52;;;;;;;1999.90;999.90;;;14.30;99.90;;;;;;5011335;28;20034;-84
2022/10/27 09:58:19;;;;;;;1999.90;999.90;;;14.30;99.90;;;;;;5007518;28;20042;-77
2022/10/27 10:00:54;;;;;;;1999.90;999.90;;;14.50;99.90;;;;;;5015310;28;20038;-78
2022/10/27 10:03:21;;;;;;;1999.90;999.90;;;14.50;99.90;;;;;;5019620;28;20038;-77
2022/10/27 10:05:58;;;;;;;1999.90;999.90;;;14.60;99.90;;;;;;5010466;28;20560;-76
2022/10/27 10:08:26;;;;;;;1999.90;999.90;;;14.80;99.90;;;;;;4996344;28;20031;-77
2022/10/27 10:11:04;;;;;;;1999.90;999.90;;;14.90;99.90;;;;;;5013568;28;20034;-79
2022/10/27 10:13:36;;;;;;;1999.90;999.90;;;15.00;99.90;;;;;;5018333;28;20045;-84
2022/10/27 10:16:11;;;;;;;1999.90;999.90;;;15.20;99.90;;;;;;5007686;28;20038;-78
2022/10/27 10:18:39;;;;;;;1999.90;999.90;;;15.40;99.90;;;;;;5025468;28;20843;-78
2022/10/27 10:21:08;;;;;;;1999.90;999.90;;;15.50;99.90;;;;;;5017819;28;20886;-78
2022/10/27 10:23:55;;;;;;;1999.90;999.90;;;15.60;99.90;;;;;;5019716;28;20030;-78
2022/10/27 10:26:28;;;;;;;1999.90;999.90;;;15.80;99.90;;;;;;4993555;28;20082;-77
2022/10/27 10:29:04;;;;;;;1999.90;999.90;;;15.90;99.90;;;;;;5000907;28;20394;-84
2022/10/27 10:31:30;;;;;;;1999.90;999.90;;;16.20;99.90;;;;;;4999297;28;20583;-78
2022/10/27 10:34:05;;;;;;;1999.90;999.90;;;16.20;99.90;;;;;;4995503;28;20117;-78
2022/10/27 10:36:39;;;;;;;1999.90;999.90;;;16.40;99.90;;;;;;4994635;28;20042;-77
2022/10/27 10:39:26;;;;;;;1999.90;999.90;;;16.50;99.90;;;;;;5000657;28;20031;-82
2022/10/27 10:42:16;;;;;;;1999.90;999.90;;;16.60;99.90;;;;;;4996093;28;20041;-77
2022/10/27 10:44:42;;;;;;;1999.90;999.90;;;16.70;99.90;;;;;;4993864;28;20148;-78
2022/10/27 10:47:28;;;;;;;1999.90;999.90;;;16.80;99.90;;;;;;4996842;28;20043;-79
2022/10/27 10:49:58;;;;;;;1999.90;999.90;;;16.90;99.90;;;;;;5011343;28;20577;-82
2022/10/27 10:52:32;;;;;;;1999.90;999.90;;;17.00;99.90;;;;;;5016548;28;20038;-81
2022/10/27 10:55:05;;;;;;;1999.90;999.90;;;17.20;99.90;;;;;;5018201;28;20471;-78
2022/10/27 10:57:39;;;;;;;1999.90;999.90;;;17.40;99.90;;;;;;5018775;28;20121;-79
2022/10/27 11:00:13;;;;;;;1999.90;999.90;;;17.40;99.90;;;;;;5016474;28;20499;-77
2022/10/27 11:02:39;;;;;;;1999.90;999.90;;;17.50;99.90;;;;;;5015818;28;20065;-76
2022/10/27 11:05:16;;;;;;;1999.90;999.90;;;17.60;99.90;;;;;;5011935;28;20039;-76
2022/10/27 11:07:45;;;;;;;1999.90;999.90;;;17.70;99.90;;;;;;4982907;28;20126;-79
2022/10/27 11:10:33;;;;;;;1999.90;999.90;;;17.80;99.90;;;;;;4999027;28;20509;-78
2022/10/27 11:13:19;;;;;;;1999.90;999.90;;;17.90;99.90;;;;;;4998785;28;20058;-78
2022/10/27 11:15:54;;;;;;;1999.90;999.90;;;18.00;99.90;;;;;;5000860;28;20417;-78
2022/10/27 11:18:29;;;;;;;1999.90;999.90;;;18.20;99.90;;;;;;4995542;28;20483;-78
2022/10/27 11:21:04;;;;;;;1999.90;999.90;;;18.30;99.90;;;;;;4995191;28;20121;-79
2022/10/27 11:23:58;;;;;;;1999.90;999.90;;;18.40;99.90;;;;;;4993760;28;20110;-77
2022/10/27 11:26:33;;;;;;;1999.90;999.90;;;18.50;99.90;;;;;;4984895;28;20605;-83
2022/10/27 11:29:03;;;;;;;1999.90;999.90;;;18.60;99.90;;;;;;4977266;28;20401;-80
2022/10/27 11:31:43;;;;;;;1999.90;999.90;;;18.80;99.90;;;;;;4976946;28;20035;-79
2022/10/27 11:34:36;;;;;;;1999.90;999.90;;;19.00;99.90;;;;;;4982248;28;20015;-78
2022/10/27 11:37:22;;;;;;;1999.90;999.90;;;19.10;99.90;;;;;;4985862;28;20143;-80
2022/10/27 11:39:55;;;;;;;1999.90;999.90;;;19.30;99.90;;;;;;4995040;28;20491;-80
2022/10/27 11:42:53;;;;;;;1999.90;999.90;;;19.50;99.90;;;;;;4976666;28;20027;-82
2022/10/27 11:45:36;;;;;;;1999.90;999.90;;;19.50;99.90;;;;;;4976908;28;20035;-84
2022/10/27 11:48:12;;;;;;;1999.90;999.90;;;19.70;99.90;;;;;;4977599;28;20027;-83
2022/10/27 11:51:01;;;;;;;1999.90;999.90;;;19.80;99.90;;;;;;4976967;28;20031;-86
2022/10/27 11:53:26;;;;;;;1999.90;999.90;;;19.80;99.90;;;;;;4975319;28;20534;-84
2022/10/27 11:56:29;;;;;;;1999.90;999.90;;;19.90;99.90;;;;;;4976740;28;20083;-82
2022/10/27 11:59:26;;;;;;;1999.90;999.90;;;20.10;99.90;;;;;;4976852;28;20027;-79
2022/10/27 12:02:04;;;;;;;1999.90;999.90;;;20.30;99.90;;;;;;4978896;28;20509;-78
2022/10/27 12:04:44;;;;;;;1999.90;999.90;;;20.50;99.90;;;;;;4977289;28;20027;-83
2022/10/27 12:07:17;;;;;;;1999.90;999.90;;;20.60;99.90;;;;;;4975555;28;20028;-77
2022/10/27 12:09:53;;;;;;;1999.90;999.90;;;20.80;99.90;;;;;;4974174;28;20122;-78
2022/10/27 12:12:36;;;;;;;1999.90;999.90;;;20.90;99.90;;;;;;4976767;28;20055;-79
2022/10/27 12:15:47;;;;;;;1999.90;999.90;;;21.00;99.90;;;;;;4974811;28;20027;-80
2022/10/27 12:18:24;;;;;;;1999.90;999.90;;;21.30;99.90;;;;;;4935454;29;20032;-78
2022/10/27 12:20:57;;;;;;;1999.90;999.90;;;21.40;99.90;;;;;;4975754;28;20115;-78
2022/10/27 12:23:26;;;;;;;1999.90;999.90;;;21.60;99.90;;;;;;4977111;28;20028;-78
2022/10/27 12:26:22;;;;;;;1999.90;999.90;;;21.80;99.90;;;;;;4991956;28;20508;-78
2022/10/27 12:28:49;;;;;;;1999.90;999.90;;;21.90;99.90;;;;;;4978999;28;20035;-79
2022/10/27 12:31:19;;;;;;;1999.90;999.90;;;22.10;99.90;;;;;;4979489;28;20035;-80
2022/10/27 12:34:07;;;;;;;1999.90;999.90;;;22.30;99.90;;;;;;4996392;28;20122;-79
2022/10/27 12:36:45;;;;;;;1999.90;999.90;;;22.40;99.90;;;;;;5001885;28;20038;-79
2022/10/27 12:39:17;;;;;;;1999.90;999.90;;;22.50;99.90;;;;;;4999501;28;20155;-79
2022/10/27 12:41:46;;;;;;;1999.90;999.90;;;22.50;99.90;;;;;;4999081;28;20109;-79
2022/10/27 12:44:26;;;;;;;1999.90;999.90;;;22.70;99.90;;;;;;4994370;28;20031;-80
2022/10/27 12:47:12;;;;;;;1999.90;999.90;;;22.80;99.90;;;;;;4993326;28;20047;-80
2022/10/27 12:49:52;;;;;;;1999.90;999.90;;;22.80;99.90;;;;;;4999790;28;20026;-86
2022/10/27 12:52:22;;;;;;;1999.90;999.90;;;22.90;99.90;;;;;;5001196;28;20039;-85
2022/10/27 12:55:09;;;;;;;1999.90;999.90;;;22.70;99.90;;;;;;4999723;28;20491;-83
2022/10/27 12:57:50;;;;;;;1999.90;999.90;;;22.70;99.90;;;;;;4998453;28;20035;-82
2022/10/27 13:00:21;;;;;;;1999.90;999.90;;;22.70;99.90;;;;;;4997598;28;20457;-84
2022/10/27 13:03:24;;;;;;;1999.90;999.90;;;22.60;99.90;;;;;;4986344;28;20564;-83
2022/10/27 13:06:02;;;;;;;1999.90;999.90;;;22.70;99.90;;;;;;4991933;28;20070;-84
2022/10/27 13:08:58;;;;;;;1999.90;999.90;;;22.60;99.90;;;;;;5011174;28;20046;-83
2022/10/27 13:11:42;;;;;;;1999.90;999.90;;;22.50;99.90;;;;;;4999506;28;20031;-80
2022/10/27 13:14:30;;;;;;;1999.90;999.90;;;22.50;99.90;;;;;;4994340;28;20031;-80
2022/10/27 13:17:13;;;;;;;1999.90;999.90;;;22.40;99.90;;;;;;4998672;28;20074;-80
2022/10/27 13:19:55;;;;;;;1999.90;999.90;;;22.40;99.90;;;;;;4999704;28;20141;-79
2022/10/27 13:22:33;;;;;;;1999.90;999.90;;;22.40;99.90;;;;;;4999553;28;20035;-79
2022/10/27 13:25:11;;;;;;;1999.90;999.90;;;22.40;99.90;;;;;;5004172;28;20456;-82
2022/10/27 13:27:42;;;;;;;1999.90;999.90;;;22.40;99.90;;;;;;5003671;28;20069;-81
2022/10/27 13:30:23;;;;;;;1999.90;999.90;;;22.40;99.90;;;;;;4996626;28;20804;-82
2022/10/27 13:32:51;;;;;;;1999.90;999.90;;;22.40;99.90;;;;;;4993556;28;20536;-81
2022/10/27 13:35:17;;;;;;;1999.90;999.90;;;22.40;99.90;;;;;;4991717;28;20042;-82
2022/10/27 13:37:57;;;;;;;1999.90;999.90;;;22.30;99.90;;;;;;4993908;28;20031;-82
2022/10/27 13:40:26;;;;;;;1999.90;999.90;;;22.40;99.90;;;;;;4998756;28;20544;-82
2022/10/27 13:42:54;;;;;;;1999.90;999.90;;;22.40;99.90;;;;;;4999009;28;20495;-82
2022/10/27 13:45:25;;;;;;;1999.90;999.90;;;22.50;99.90;;;;;;5001127;28;20556;-82
2022/10/27 13:48:20;;;;;;;1999.90;999.90;;;22.40;99.90;;;;;;4982548;28;20030;-82
2022/10/27 13:50:50;;;;;;;1999.90;999.90;;;22.40;99.90;;;;;;4971562;28;20055;-81
2022/10/27 13:53:16;;;;;;;1999.90;999.90;;;22.30;99.90;;;;;;4978966;28;20035;-81
2022/10/27 13:55:44;;;;;;;1999.90;999.90;;;22.40;99.90;;;;;;4978286;28;20031;-82
2022/10/27 13:58:31;;;;;;;1999.90;999.90;;;22.30;99.90;;;;;;4982488;28;20110;-81
2022/10/27 14:01:32;;;;;;;1999.90;999.90;;;22.40;99.90;;;;;;5014057;28;20497;-81
2022/10/27 14:04:47;;;;;;;1999.90;999.90;;;22.40;99.90;;;;;;4979053;28;20095;-81
2022/10/27 14:07:14;;;;;;;1999.90;999.90;;;22.40;99.90;;;;;;4919407;29;20044;-82
2022/10/27 14:09:44;;;;;;;1999.90;999.90;;;22.30;99.90;;;;;;4974604;28;20051;-80
2022/10/27 14:12:27;;;;;;;1999.90;999.90;;;22.40;99.90;;;;;;4981571;28;20405;-81
2022/10/27 14:15:14;;;;;;;1999.90;999.90;;;22.30;99.90;;;;;;4979023;28;20039;-79
2022/10/27 14:17:41;;;;;;;1999.90;999.90;;;22.30;99.90;;;;;;4978188;28;20066;-80
2022/10/27 14:20:35;;;;;;;1999.90;999.90;;;22.20;99.90;;;;;;4978815;28;20031;-80
2022/10/27 14:23:10;;;;;;;1999.90;999.90;;;22.20;99.90;;;;;;4968125;28;20035;-80
2022/10/27 14:25:35;;;;;;;1999.90;999.90;;;22.20;99.90;;;;;;4997216;28;20476;-82
2022/10/27 14:28:17;;;;;;;1999.90;999.90;;;22.20;99.90;;;;;;5022565;28;20035;-82
2022/10/27 14:30:44;;;;;;;1999.90;999.90;;;22.10;99.90;;;;;;5009120;28;20041;-82
2022/10/27 14:33:21;;;;;;;1999.90;999.90;;;22.00;99.90;;;;;;5004761;28;20038;-81
2022/10/27 14:35:46;;;;;;;1999.90;999.90;;;22.00;99.90;;;;;;4993846;28;20102;-81
2022/10/27 14:38:20;;;;;;;1999.90;999.90;;;21.90;99.90;;;;;;4992499;28;20103;-81
2022/10/27 14:40:46;;;;;;;1999.90;999.90;;;21.90;99.90;;;;;;4981520;28;20031;-82
2022/10/27 14:43:23;;;;;;;1999.90;999.90;;;22.00;99.90;;;;;;4976600;28;20055;-81
2022/10/27 14:45:54;;;;;;;1999.90;999.90;;;21.80;99.90;;;;;;4983401;28;20035;-79
2022/10/27 14:48:27;;;;;;;1999.90;999.90;;;21.70;99.90;;;;;;4998149;28;20026;-78
2022/10/27 14:50:54;;;;;;;1999.90;999.90;;;21.60;99.90;;;;;;4996976;28;20047;-79
2022/10/27 14:53:34;;;;;;;1999.90;999.90;;;21.40;99.90;;;;;;4994192;28;20471;-78
2022/10/27 14:56:04;;;;;;;1999.90;999.90;;;21.40;99.90;;;;;;4995136;28;20031;-81
2022/10/27 14:58:29;;;;;;;1999.90;999.90;;;21.30;99.90;;;;;;4992895;28;20102;-80
2022/10/27 15:00:55;;;;;;;1999.90;999.90;;;21.10;99.90;;;;;;4993920;28;20094;-83
2022/10/27 15:03:20;;;;;;;1999.90;999.90;;;21.00;99.90;;;;;;4998962;28;20062;-82
2022/10/27 15:05:48;;;;;;;1999.90;999.90;;;20.90;99.90;;;;;;4994579;28;20082;-80
2022/10/27 15:08:16;;;;;;;1999.90;999.90;;;20.60;99.90;;;;;;4974947;28;20039;-79
2022/10/27 15:10:43;;;;;;;1999.90;999.90;;;20.50;99.90;;;;;;4982325;28;20042;-80
2022/10/27 15:13:21;;;;;;;1999.90;999.90;;;20.30;99.90;;;;;;4994827;28;20127;-80
2022/10/27 15:15:48;;;;;;;1999.90;999.90;;;20.20;99.90;;;;;;4993449;28;20046;-87
2022/10/27 15:18:25;;;;;;;1999.90;999.90;;;20.00;99.90;;;;;;4994069;28;20031;-79
2022/10/27 15:20:52;;;;;;;1999.90;999.90;;;19.90;99.90;;;;;;4994967;28;20046;-85
2022/10/27 15:23:18;;;;;;;1999.90;999.90;;;19.60;99.90;;;;;;4996149;28;20113;-82
2022/10/27 15:25:46;;;;;;;1999.90;999.90;;;19.60;99.90;;;;;;4994326;28;20105;-80
2022/10/27 15:28:14;;;;;;;1999.90;999.90;;;19.50;99.90;;;;;;4995370;28;20114;-80
2022/10/27 15:30:40;;;;;;;1999.90;999.90;;;19.30;99.90;;;;;;4995510;28;20050;-83
2022/10/27 15:33:27;;;;;;;1999.90;999.90;;;19.20;99.90;;;;;;4999164;28;20034;-82
2022/10/27 15:35:54;;;;;;;1999.90;999.90;;;19.00;99.90;;;;;;4976532;28;20043;-79
2022/10/27 15:38:25;;;;;;;1999.90;999.90;;;18.90;99.90;;;;;;4973605;28;20039;-79
2022/10/27 15:40:54;;;;;;;1999.90;999.90;;;18.70;99.90;;;;;;4993422;28;20492;-79
2022/10/27 15:43:29;;;;;;;1999.90;999.90;;;18.50;99.90;;;;;;4993249;28;20045;-79
2022/10/27 15:46:25;;;;;;;1999.90;999.90;;;18.40;99.90;;;;;;4994553;28;20166;-80
2022/10/27 15:49:00;;;;;;;1999.90;999.90;;;18.20;99.90;;;;;;4986549;28;20103;-81
2022/10/27 15:51:41;;;;;;;1999.90;999.90;;;18.10;99.90;;;;;;4988297;28;20146;-79
2022/10/27 15:54:29;;;;;;;1999.90;999.90;;;17.90;99.90;;;;;;4989674;28;20038;-79
2022/10/27 15:56:55;;;;;;;1999.90;999.90;;;17.60;99.90;;;;;;5005502;28;20045;-78
2022/10/27 15:59:28;;;;;;;1999.90;999.90;;;17.50;99.90;;;;;;5006513;28;20037;-79
2022/10/27 16:02:00;;;;;;;1999.90;999.90;;;17.30;99.90;;;;;;4993829;28;20039;-79
2022/10/27 16:04:35;;;;;;;1999.90;999.90;;;17.10;99.90;;;;;;4993556;28;20519;-78
2022/10/27 16:07:13;;;;;;;1999.90;999.90;;;17.10;99.90;;;;;;4991811;28;20043;-79
2022/10/27 16:09:46;;;;;;;1999.90;999.90;;;16.90;99.90;;;;;;5004483;28;20042;-78
2022/10/27 16:12:16;;;;;;;1999.90;999.90;;;16.70;99.90;;;;;;4999435;28;20050;-78
2022/10/27 16:14:44;;;;;;;1999.90;999.90;;;16.50;99.90;;;;;;4996828;28;20070;-79
2022/10/27 16:17:14;;;;;;;1999.90;999.90;;;16.30;99.90;;;;;;4995604;28;20504;-79
2022/10/27 16:19:43;;;;;;;1999.90;999.90;;;16.20;99.90;;;;;;4997260;28;20042;-79
2022/10/27 16:22:12;;;;;;;1999.90;999.90;;;16.00;99.90;;;;;;5011883;28;20832;-80
2022/10/27 16:24:37;;;;;;;1999.90;999.90;;;15.90;99.90;;;;;;4995021;28;20039;-78
2022/10/27 16:27:03;;;;;;;1999.90;999.90;;;15.80;99.90;;;;;;4996809;28;20031;-77